sensor_id;sensor_type;location;lat;lon;timestamp;P1;durP1;ratioP1;P2;durP2;ratioP2
11439;SDS011;5776;51.814;4.510;2023-05-07T00:00:51;9.43;;;7.40;;
11439;SDS011;5776;51.814;4.510;2023-05-07T00:03:17;8.60;;;7.68;;
11439;SDS011;5776;51.814;4.510;2023-05-07T00:05:44;11.37;;;10.17;;
11439;SDS011;5776;51.814;4.510;2023-05-07T00:08:10;11.43;;;9.27;;
11439;SDS011;5776;51.814;4.510;2023-05-07T00:10:36;10.17;;;8.43;;
11439;SDS011;5776;51.814;4.510;2023-05-07T00:13:02;14.37;;;11.40;;
11439;SDS011;5776;51.814;4.510;2023-05-07T00:15:28;14.47;;;11.33;;
11439;SDS011;5776;51.814;4.510;2023-05-07T00:17:55;9.73;;;8.73;;
11439;SDS011;5776;51.814;4.510;2023-05-07T00:20:21;14.93;;;12.47;;
11439;SDS011;5776;51.814;4.510;2023-05-07T00:22:47;13.00;;;11.43;;
11439;SDS011;5776;51.814;4.510;2023-05-07T00:25:16;16.10;;;13.73;;
11439;SDS011;5776;51.814;4.510;2023-05-07T00:27:42;15.77;;;11.25;;
11439;SDS011;5776;51.814;4.510;2023-05-07T00:30:08;13.87;;;11.57;;
11439;SDS011;5776;51.814;4.510;2023-05-07T00:32:34;13.77;;;11.53;;
11439;SDS011;5776;51.814;4.510;2023-05-07T00:34:59;14.37;;;12.87;;
11439;SDS011;5776;51.814;4.510;2023-05-07T00:37:25;12.77;;;9.60;;
11439;SDS011;5776;51.814;4.510;2023-05-07T00:39:51;9.68;;;7.90;;
11439;SDS011;5776;51.814;4.510;2023-05-07T00:42:17;10.07;;;9.07;;
11439;SDS011;5776;51.814;4.510;2023-05-07T00:44:43;7.73;;;6.87;;
11439;SDS011;5776;51.814;4.510;2023-05-07T00:47:09;14.38;;;10.40;;
11439;SDS011;5776;51.814;4.510;2023-05-07T00:49:39;12.10;;;10.37;;
11439;SDS011;5776;51.814;4.510;2023-05-07T00:52:07;9.43;;;8.30;;
11439;SDS011;5776;51.814;4.510;2023-05-07T00:54:36;9.75;;;7.93;;
11439;SDS011;5776;51.814;4.510;2023-05-07T00:57:02;9.73;;;7.57;;
11439;SDS011;5776;51.814;4.510;2023-05-07T00:59:30;11.27;;;8.75;;
11439;SDS011;5776;51.814;4.510;2023-05-07T01:01:57;10.98;;;8.32;;
11439;SDS011;5776;51.814;4.510;2023-05-07T01:04:23;9.03;;;8.00;;
11439;SDS011;5776;51.814;4.510;2023-05-07T01:06:49;13.02;;;11.05;;
11439;SDS011;5776;51.814;4.510;2023-05-07T01:09:16;13.97;;;11.60;;
11439;SDS011;5776;51.814;4.510;2023-05-07T01:11:43;11.50;;;10.30;;
11439;SDS011;5776;51.814;4.510;2023-05-07T01:14:09;9.15;;;8.07;;
11439;SDS011;5776;51.814;4.510;2023-05-07T01:16:36;9.33;;;8.33;;
11439;SDS011;5776;51.814;4.510;2023-05-07T01:19:02;8.97;;;7.63;;
11439;SDS011;5776;51.814;4.510;2023-05-07T01:21:28;16.00;;;9.90;;
11439;SDS011;5776;51.814;4.510;2023-05-07T01:23:58;10.23;;;7.70;;
11439;SDS011;5776;51.814;4.510;2023-05-07T01:26:25;10.67;;;8.80;;
11439;SDS011;5776;51.814;4.510;2023-05-07T01:28:51;8.32;;;7.07;;
11439;SDS011;5776;51.814;4.510;2023-05-07T01:31:16;10.20;;;8.00;;
11439;SDS011;5776;51.814;4.510;2023-05-07T01:33:43;8.73;;;6.57;;
11439;SDS011;5776;51.814;4.510;2023-05-07T01:36:10;12.80;;;9.30;;
11439;SDS011;5776;51.814;4.510;2023-05-07T01:38:37;9.63;;;7.53;;
11439;SDS011;5776;51.814;4.510;2023-05-07T01:41:05;9.80;;;8.33;;
11439;SDS011;5776;51.814;4.510;2023-05-07T01:43:31;8.13;;;6.53;;
11439;SDS011;5776;51.814;4.510;2023-05-07T01:45:58;7.65;;;6.65;;
11439;SDS011;5776;51.814;4.510;2023-05-07T01:48:24;8.40;;;6.47;;
11439;SDS011;5776;51.814;4.510;2023-05-07T01:50:51;7.30;;;5.67;;
11439;SDS011;5776;51.814;4.510;2023-05-07T01:53:18;7.87;;;6.33;;
11439;SDS011;5776;51.814;4.510;2023-05-07T01:55:44;6.83;;;6.00;;
11439;SDS011;5776;51.814;4.510;2023-05-07T01:58:10;6.13;;;5.53;;
11439;SDS011;5776;51.814;4.510;2023-05-07T02:00:36;6.00;;;5.40;;
11439;SDS011;5776;51.814;4.510;2023-05-07T02:03:02;6.77;;;4.80;;
11439;SDS011;5776;51.814;4.510;2023-05-07T02:05:28;7.63;;;5.40;;
11439;SDS011;5776;51.814;4.510;2023-05-07T02:07:55;6.57;;;4.90;;
11439;SDS011;5776;51.814;4.510;2023-05-07T02:10:20;6.57;;;5.57;;
11439;SDS011;5776;51.814;4.510;2023-05-07T02:12:46;7.93;;;6.47;;
11439;SDS011;5776;51.814;4.510;2023-05-07T02:15:12;6.60;;;5.87;;
11439;SDS011;5776;51.814;4.510;2023-05-07T02:17:39;5.83;;;4.20;;
11439;SDS011;5776;51.814;4.510;2023-05-07T02:20:24;5.97;;;5.00;;
11439;SDS011;5776;51.814;4.510;2023-05-07T02:22:50;4.57;;;3.67;;
11439;SDS011;5776;51.814;4.510;2023-05-07T02:25:16;6.47;;;4.53;;
11439;SDS011;5776;51.814;4.510;2023-05-07T02:27:42;6.10;;;4.90;;
11439;SDS011;5776;51.814;4.510;2023-05-07T02:30:08;4.20;;;3.80;;
11439;SDS011;5776;51.814;4.510;2023-05-07T02:32:34;9.37;;;5.57;;
11439;SDS011;5776;51.814;4.510;2023-05-07T02:35:00;4.80;;;4.13;;
11439;SDS011;5776;51.814;4.510;2023-05-07T02:37:26;7.27;;;4.90;;
11439;SDS011;5776;51.814;4.510;2023-05-07T02:39:52;6.10;;;5.37;;
11439;SDS011;5776;51.814;4.510;2023-05-07T02:42:18;5.50;;;4.43;;
11439;SDS011;5776;51.814;4.510;2023-05-07T02:44:43;9.60;;;5.17;;
11439;SDS011;5776;51.814;4.510;2023-05-07T02:47:09;8.30;;;5.83;;
11439;SDS011;5776;51.814;4.510;2023-05-07T02:49:35;7.03;;;5.87;;
11439;SDS011;5776;51.814;4.510;2023-05-07T02:52:01;3.90;;;3.00;;
11439;SDS011;5776;51.814;4.510;2023-05-07T02:54:27;4.50;;;3.65;;
11439;SDS011;5776;51.814;4.510;2023-05-07T02:56:53;4.10;;;3.60;;
11439;SDS011;5776;51.814;4.510;2023-05-07T02:59:19;5.83;;;3.60;;
11439;SDS011;5776;51.814;4.510;2023-05-07T03:01:45;5.33;;;4.57;;
11439;SDS011;5776;51.814;4.510;2023-05-07T03:04:11;7.30;;;4.67;;
11439;SDS011;5776;51.814;4.510;2023-05-07T03:06:37;6.30;;;4.97;;
11439;SDS011;5776;51.814;4.510;2023-05-07T03:09:03;5.03;;;3.80;;
11439;SDS011;5776;51.814;4.510;2023-05-07T03:11:29;4.07;;;2.70;;
11439;SDS011;5776;51.814;4.510;2023-05-07T03:13:55;4.77;;;3.43;;
11439;SDS011;5776;51.814;4.510;2023-05-07T03:16:21;8.03;;;4.70;;
11439;SDS011;5776;51.814;4.510;2023-05-07T03:18:47;4.97;;;3.30;;
11439;SDS011;5776;51.814;4.510;2023-05-07T03:21:13;3.80;;;2.70;;
11439;SDS011;5776;51.814;4.510;2023-05-07T03:23:38;3.80;;;2.90;;
11439;SDS011;5776;51.814;4.510;2023-05-07T03:26:04;6.43;;;3.33;;
11439;SDS011;5776;51.814;4.510;2023-05-07T03:28:30;2.97;;;2.57;;
11439;SDS011;5776;51.814;4.510;2023-05-07T03:30:56;4.10;;;2.47;;
11439;SDS011;5776;51.814;4.510;2023-05-07T03:33:22;5.43;;;4.43;;
11439;SDS011;5776;51.814;4.510;2023-05-07T03:35:48;2.83;;;2.50;;
11439;SDS011;5776;51.814;4.510;2023-05-07T03:38:14;7.83;;;3.97;;
11439;SDS011;5776;51.814;4.510;2023-05-07T03:40:39;2.93;;;2.50;;
11439;SDS011;5776;51.814;4.510;2023-05-07T03:43:05;4.13;;;3.07;;
11439;SDS011;5776;51.814;4.510;2023-05-07T03:45:31;5.60;;;2.77;;
11439;SDS011;5776;51.814;4.510;2023-05-07T03:47:57;3.97;;;3.57;;
11439;SDS011;5776;51.814;4.510;2023-05-07T03:50:23;5.40;;;4.60;;
11439;SDS011;5776;51.814;4.510;2023-05-07T03:52:50;5.00;;;3.47;;
11439;SDS011;5776;51.814;4.510;2023-05-07T03:55:16;6.10;;;4.40;;
11439;SDS011;5776;51.814;4.510;2023-05-07T03:57:42;5.93;;;4.80;;
11439;SDS011;5776;51.814;4.510;2023-05-07T04:00:08;5.77;;;4.43;;
11439;SDS011;5776;51.814;4.510;2023-05-07T04:02:34;10.00;;;6.03;;
11439;SDS011;5776;51.814;4.510;2023-05-07T04:05:00;7.40;;;6.40;;
11439;SDS011;5776;51.814;4.510;2023-05-07T04:07:26;9.47;;;6.20;;
11439;SDS011;5776;51.814;4.510;2023-05-07T04:09:52;6.93;;;5.00;;
11439;SDS011;5776;51.814;4.510;2023-05-07T04:12:18;11.27;;;6.43;;
11439;SDS011;5776;51.814;4.510;2023-05-07T04:14:44;7.60;;;5.80;;
11439;SDS011;5776;51.814;4.510;2023-05-07T04:17:10;6.07;;;4.97;;
11439;SDS011;5776;51.814;4.510;2023-05-07T04:19:36;3.57;;;3.27;;
11439;SDS011;5776;51.814;4.510;2023-05-07T04:22:02;4.10;;;3.03;;
11439;SDS011;5776;51.814;4.510;2023-05-07T04:24:30;4.17;;;3.73;;
11439;SDS011;5776;51.814;4.510;2023-05-07T04:26:58;5.57;;;4.20;;
11439;SDS011;5776;51.814;4.510;2023-05-07T04:29:25;4.97;;;4.23;;
11439;SDS011;5776;51.814;4.510;2023-05-07T04:31:51;5.97;;;4.03;;
11439;SDS011;5776;51.814;4.510;2023-05-07T04:34:17;6.20;;;4.70;;
11439;SDS011;5776;51.814;4.510;2023-05-07T04:36:43;6.50;;;4.37;;
11439;SDS011;5776;51.814;4.510;2023-05-07T04:39:08;7.80;;;5.50;;
11439;SDS011;5776;51.814;4.510;2023-05-07T04:41:35;6.13;;;5.07;;
11439;SDS011;5776;51.814;4.510;2023-05-07T04:44:02;7.03;;;6.00;;
11439;SDS011;5776;51.814;4.510;2023-05-07T04:46:29;4.93;;;3.50;;
11439;SDS011;5776;51.814;4.510;2023-05-07T04:48:56;3.37;;;2.87;;
11439;SDS011;5776;51.814;4.510;2023-05-07T04:51:24;4.93;;;4.07;;
11439;SDS011;5776;51.814;4.510;2023-05-07T04:53:50;4.40;;;3.63;;
11439;SDS011;5776;51.814;4.510;2023-05-07T04:56:16;4.93;;;3.70;;
11439;SDS011;5776;51.814;4.510;2023-05-07T04:58:42;5.67;;;3.30;;
11439;SDS011;5776;51.814;4.510;2023-05-07T05:01:08;7.57;;;5.70;;
11439;SDS011;5776;51.814;4.510;2023-05-07T05:03:34;6.13;;;4.83;;
11439;SDS011;5776;51.814;4.510;2023-05-07T05:06:00;6.67;;;5.37;;
11439;SDS011;5776;51.814;4.510;2023-05-07T05:08:26;5.77;;;3.63;;
11439;SDS011;5776;51.814;4.510;2023-05-07T05:10:52;7.57;;;5.70;;
11439;SDS011;5776;51.814;4.510;2023-05-07T05:13:18;5.97;;;4.20;;
11439;SDS011;5776;51.814;4.510;2023-05-07T05:15:44;7.67;;;6.07;;
11439;SDS011;5776;51.814;4.510;2023-05-07T05:18:11;5.40;;;3.87;;
11439;SDS011;5776;51.814;4.510;2023-05-07T05:20:36;5.33;;;4.20;;
11439;SDS011;5776;51.814;4.510;2023-05-07T05:23:02;4.30;;;3.33;;
11439;SDS011;5776;51.814;4.510;2023-05-07T05:25:28;5.23;;;4.37;;
11439;SDS011;5776;51.814;4.510;2023-05-07T05:27:54;6.37;;;4.87;;
11439;SDS011;5776;51.814;4.510;2023-05-07T05:30:20;4.00;;;3.60;;
11439;SDS011;5776;51.814;4.510;2023-05-07T05:32:46;7.80;;;6.30;;
11439;SDS011;5776;51.814;4.510;2023-05-07T05:35:12;9.47;;;5.87;;
11439;SDS011;5776;51.814;4.510;2023-05-07T05:37:37;5.80;;;4.20;;
11439;SDS011;5776;51.814;4.510;2023-05-07T05:40:03;7.13;;;5.83;;
11439;SDS011;5776;51.814;4.510;2023-05-07T05:42:30;7.63;;;5.83;;
11439;SDS011;5776;51.814;4.510;2023-05-07T05:44:56;8.25;;;6.15;;
11439;SDS011;5776;51.814;4.510;2023-05-07T05:47:22;7.43;;;4.80;;
11439;SDS011;5776;51.814;4.510;2023-05-07T05:49:48;8.77;;;7.10;;
11439;SDS011;5776;51.814;4.510;2023-05-07T05:52:14;8.43;;;6.43;;
11439;SDS011;5776;51.814;4.510;2023-05-07T05:54:40;7.43;;;6.07;;
11439;SDS011;5776;51.814;4.510;2023-05-07T05:57:06;6.60;;;3.87;;
11439;SDS011;5776;51.814;4.510;2023-05-07T05:59:31;6.55;;;5.05;;
11439;SDS011;5776;51.814;4.510;2023-05-07T06:01:57;7.10;;;6.20;;
11439;SDS011;5776;51.814;4.510;2023-05-07T06:04:23;12.63;;;6.97;;
11439;SDS011;5776;51.814;4.510;2023-05-07T06:06:49;9.07;;;6.97;;
11439;SDS011;5776;51.814;4.510;2023-05-07T06:09:15;9.07;;;6.67;;
11439;SDS011;5776;51.814;4.510;2023-05-07T06:11:41;8.53;;;6.90;;
11439;SDS011;5776;51.814;4.510;2023-05-07T06:14:07;10.43;;;8.67;;
11439;SDS011;5776;51.814;4.510;2023-05-07T06:16:33;8.33;;;6.20;;
11439;SDS011;5776;51.814;4.510;2023-05-07T06:18:59;10.03;;;7.93;;
11439;SDS011;5776;51.814;4.510;2023-05-07T06:21:25;8.83;;;7.07;;
11439;SDS011;5776;51.814;4.510;2023-05-07T06:23:51;14.20;;;8.90;;
11439;SDS011;5776;51.814;4.510;2023-05-07T06:26:18;9.47;;;7.73;;
11439;SDS011;5776;51.814;4.510;2023-05-07T06:28:45;11.83;;;8.10;;
11439;SDS011;5776;51.814;4.510;2023-05-07T06:31:15;10.83;;;7.50;;
11439;SDS011;5776;51.814;4.510;2023-05-07T06:33:43;14.63;;;8.23;;
11439;SDS011;5776;51.814;4.510;2023-05-07T06:36:11;9.43;;;7.50;;
11439;SDS011;5776;51.814;4.510;2023-05-07T06:38:37;10.90;;;8.03;;
11439;SDS011;5776;51.814;4.510;2023-05-07T06:41:03;9.67;;;7.43;;
11439;SDS011;5776;51.814;4.510;2023-05-07T06:43:29;7.67;;;5.77;;
11439;SDS011;5776;51.814;4.510;2023-05-07T06:45:55;10.80;;;5.80;;
11439;SDS011;5776;51.814;4.510;2023-05-07T06:48:21;7.10;;;5.00;;
11439;SDS011;5776;51.814;4.510;2023-05-07T06:50:47;7.13;;;5.00;;
11439;SDS011;5776;51.814;4.510;2023-05-07T06:53:13;9.07;;;7.10;;
11439;SDS011;5776;51.814;4.510;2023-05-07T06:55:38;10.37;;;6.20;;
11439;SDS011;5776;51.814;4.510;2023-05-07T06:58:04;8.77;;;7.33;;
11439;SDS011;5776;51.814;4.510;2023-05-07T07:00:31;11.00;;;7.60;;
11439;SDS011;5776;51.814;4.510;2023-05-07T07:02:57;9.13;;;7.10;;
11439;SDS011;5776;51.814;4.510;2023-05-07T07:05:24;10.03;;;7.97;;
11439;SDS011;5776;51.814;4.510;2023-05-07T07:07:50;10.60;;;8.30;;
11439;SDS011;5776;51.814;4.510;2023-05-07T07:10:21;6.87;;;4.77;;
11439;SDS011;5776;51.814;4.510;2023-05-07T07:12:48;11.27;;;7.83;;
11439;SDS011;5776;51.814;4.510;2023-05-07T07:15:15;10.23;;;7.23;;
11439;SDS011;5776;51.814;4.510;2023-05-07T07:17:41;11.88;;;8.63;;
11439;SDS011;5776;51.814;4.510;2023-05-07T07:20:07;9.07;;;5.90;;
11439;SDS011;5776;51.814;4.510;2023-05-07T07:22:34;8.33;;;4.97;;
11439;SDS011;5776;51.814;4.510;2023-05-07T07:25:00;6.07;;;4.10;;
11439;SDS011;5776;51.814;4.510;2023-05-07T07:27:26;6.20;;;5.57;;
11439;SDS011;5776;51.814;4.510;2023-05-07T07:29:52;8.10;;;5.60;;
11439;SDS011;5776;51.814;4.510;2023-05-07T07:32:18;9.25;;;6.70;;
11439;SDS011;5776;51.814;4.510;2023-05-07T07:34:43;9.70;;;5.80;;
11439;SDS011;5776;51.814;4.510;2023-05-07T07:37:09;9.67;;;6.77;;
11439;SDS011;5776;51.814;4.510;2023-05-07T07:39:35;11.03;;;7.97;;
11439;SDS011;5776;51.814;4.510;2023-05-07T07:42:03;9.67;;;7.27;;
11439;SDS011;5776;51.814;4.510;2023-05-07T07:44:29;12.27;;;7.50;;
11439;SDS011;5776;51.814;4.510;2023-05-07T07:46:55;11.70;;;7.50;;
11439;SDS011;5776;51.814;4.510;2023-05-07T07:49:21;9.87;;;6.10;;
11439;SDS011;5776;51.814;4.510;2023-05-07T07:51:47;9.70;;;7.28;;
11439;SDS011;5776;51.814;4.510;2023-05-07T07:54:13;10.23;;;6.97;;
11439;SDS011;5776;51.814;4.510;2023-05-07T07:56:39;8.53;;;7.23;;
11439;SDS011;5776;51.814;4.510;2023-05-07T07:59:05;15.23;;;9.13;;
11439;SDS011;5776;51.814;4.510;2023-05-07T08:01:31;10.43;;;6.43;;
11439;SDS011;5776;51.814;4.510;2023-05-07T08:04:00;8.97;;;6.93;;
11439;SDS011;5776;51.814;4.510;2023-05-07T08:06:28;12.87;;;9.03;;
11439;SDS011;5776;51.814;4.510;2023-05-07T08:08:55;11.18;;;7.65;;
11439;SDS011;5776;51.814;4.510;2023-05-07T08:11:21;10.50;;;6.73;;
11439;SDS011;5776;51.814;4.510;2023-05-07T08:13:47;11.57;;;7.87;;
11439;SDS011;5776;51.814;4.510;2023-05-07T08:16:14;11.77;;;9.73;;
11439;SDS011;5776;51.814;4.510;2023-05-07T08:18:39;10.47;;;6.93;;
11439;SDS011;5776;51.814;4.510;2023-05-07T08:21:05;12.53;;;9.43;;
11439;SDS011;5776;51.814;4.510;2023-05-07T08:23:31;13.57;;;10.77;;
11439;SDS011;5776;51.814;4.510;2023-05-07T08:25:57;15.88;;;11.57;;
11439;SDS011;5776;51.814;4.510;2023-05-07T08:28:24;16.02;;;11.07;;
11439;SDS011;5776;51.814;4.510;2023-05-07T08:30:50;14.67;;;9.83;;
11439;SDS011;5776;51.814;4.510;2023-05-07T08:33:16;12.33;;;10.07;;
11439;SDS011;5776;51.814;4.510;2023-05-07T08:35:42;15.07;;;11.20;;
11439;SDS011;5776;51.814;4.510;2023-05-07T08:38:08;9.43;;;7.25;;
11439;SDS011;5776;51.814;4.510;2023-05-07T08:40:36;14.03;;;11.73;;
11439;SDS011;5776;51.814;4.510;2023-05-07T08:43:05;15.88;;;11.82;;
11439;SDS011;5776;51.814;4.510;2023-05-07T08:45:32;17.13;;;13.27;;
11439;SDS011;5776;51.814;4.510;2023-05-07T08:47:59;15.50;;;12.17;;
11439;SDS011;5776;51.814;4.510;2023-05-07T08:50:27;14.37;;;11.43;;
11439;SDS011;5776;51.814;4.510;2023-05-07T08:52:53;10.67;;;8.47;;
11439;SDS011;5776;51.814;4.510;2023-05-07T08:55:20;13.33;;;10.17;;
11439;SDS011;5776;51.814;4.510;2023-05-07T08:57:46;15.77;;;11.30;;
11439;SDS011;5776;51.814;4.510;2023-05-07T09:00:13;16.27;;;12.77;;
11439;SDS011;5776;51.814;4.510;2023-05-07T09:02:40;17.43;;;14.07;;
11439;SDS011;5776;51.814;4.510;2023-05-07T09:05:06;18.00;;;14.73;;
11439;SDS011;5776;51.814;4.510;2023-05-07T09:07:32;17.13;;;13.53;;
11439;SDS011;5776;51.814;4.510;2023-05-07T09:10:00;16.92;;;12.18;;
11439;SDS011;5776;51.814;4.510;2023-05-07T09:12:27;18.17;;;13.02;;
11439;SDS011;5776;51.814;4.510;2023-05-07T09:14:53;14.90;;;12.13;;
11439;SDS011;5776;51.814;4.510;2023-05-07T09:17:19;16.33;;;13.47;;
11439;SDS011;5776;51.814;4.510;2023-05-07T09:19:45;12.13;;;10.27;;
11439;SDS011;5776;51.814;4.510;2023-05-07T09:22:11;17.75;;;12.18;;
11439;SDS011;5776;51.814;4.510;2023-05-07T09:24:38;17.90;;;10.67;;
11439;SDS011;5776;51.814;4.510;2023-05-07T09:27:04;12.70;;;10.83;;
11439;SDS011;5776;51.814;4.510;2023-05-07T09:29:31;13.70;;;10.48;;
11439;SDS011;5776;51.814;4.510;2023-05-07T09:32:03;14.07;;;10.47;;
11439;SDS011;5776;51.814;4.510;2023-05-07T09:34:32;16.60;;;11.05;;
11439;SDS011;5776;51.814;4.510;2023-05-07T09:37:02;13.40;;;10.52;;
11439;SDS011;5776;51.814;4.510;2023-05-07T09:39:45;10.60;;;8.23;;
11439;SDS011;5776;51.814;4.510;2023-05-07T09:42:12;18.77;;;11.77;;
11439;SDS011;5776;51.814;4.510;2023-05-07T09:44:40;10.77;;;7.80;;
11439;SDS011;5776;51.814;4.510;2023-05-07T09:47:06;12.63;;;7.50;;
11439;SDS011;5776;51.814;4.510;2023-05-07T09:49:34;11.37;;;8.77;;
11439;SDS011;5776;51.814;4.510;2023-05-07T09:52:02;12.93;;;9.57;;
11439;SDS011;5776;51.814;4.510;2023-05-07T09:54:32;11.90;;;9.32;;
11439;SDS011;5776;51.814;4.510;2023-05-07T09:56:59;11.63;;;7.13;;
11439;SDS011;5776;51.814;4.510;2023-05-07T09:59:28;13.35;;;10.73;;
11439;SDS011;5776;51.814;4.510;2023-05-07T10:01:57;12.90;;;8.52;;
11439;SDS011;5776;51.814;4.510;2023-05-07T10:04:24;12.95;;;10.50;;
11439;SDS011;5776;51.814;4.510;2023-05-07T10:06:51;11.05;;;8.60;;
11439;SDS011;5776;51.814;4.510;2023-05-07T10:09:19;17.50;;;11.57;;
11439;SDS011;5776;51.814;4.510;2023-05-07T10:11:46;15.93;;;12.23;;
11439;SDS011;5776;51.814;4.510;2023-05-07T10:14:14;15.57;;;12.52;;
11439;SDS011;5776;51.814;4.510;2023-05-07T10:16:41;15.27;;;10.93;;
11439;SDS011;5776;51.814;4.510;2023-05-07T10:19:07;16.52;;;10.93;;
11439;SDS011;5776;51.814;4.510;2023-05-07T10:21:37;15.55;;;10.18;;
11439;SDS011;5776;51.814;4.510;2023-05-07T10:24:26;12.07;;;9.47;;
11439;SDS011;5776;51.814;4.510;2023-05-07T10:26:52;13.15;;;9.02;;
11439;SDS011;5776;51.814;4.510;2023-05-07T10:35:02;13.10;;;8.43;;
11439;SDS011;5776;51.814;4.510;2023-05-07T10:37:32;13.85;;;8.30;;
11439;SDS011;5776;51.814;4.510;2023-05-07T10:39:59;13.98;;;8.82;;
11439;SDS011;5776;51.814;4.510;2023-05-07T10:42:25;13.27;;;7.80;;
11439;SDS011;5776;51.814;4.510;2023-05-07T10:44:51;6.80;;;4.70;;
11439;SDS011;5776;51.814;4.510;2023-05-07T10:47:17;9.77;;;5.82;;
11439;SDS011;5776;51.814;4.510;2023-05-07T10:52:13;9.82;;;5.78;;
11439;SDS011;5776;51.814;4.510;2023-05-07T10:54:44;11.07;;;6.70;;
11439;SDS011;5776;51.814;4.510;2023-05-07T11:05:28;12.10;;;4.13;;
11439;SDS011;5776;51.814;4.510;2023-05-07T11:07:56;9.20;;;3.75;;
11439;SDS011;5776;51.814;4.510;2023-05-07T11:10:29;9.75;;;4.55;;
11439;SDS011;5776;51.814;4.510;2023-05-07T11:16:17;9.48;;;3.47;;
11439;SDS011;5776;51.814;4.510;2023-05-07T11:18:51;5.70;;;2.83;;
11439;SDS011;5776;51.814;4.510;2023-05-07T11:23:58;8.70;;;4.18;;
11439;SDS011;5776;51.814;4.510;2023-05-07T11:26:24;11.57;;;6.55;;
11439;SDS011;5776;51.814;4.510;2023-05-07T11:28:51;11.23;;;7.18;;
11439;SDS011;5776;51.814;4.510;2023-05-07T11:31:22;12.68;;;7.03;;
11439;SDS011;5776;51.814;4.510;2023-05-07T11:33:51;10.38;;;7.75;;
11439;SDS011;5776;51.814;4.510;2023-05-07T11:36:18;16.08;;;10.75;;
11439;SDS011;5776;51.814;4.510;2023-05-07T11:38:45;13.82;;;10.10;;
11439;SDS011;5776;51.814;4.510;2023-05-07T11:41:11;9.90;;;7.60;;
11439;SDS011;5776;51.814;4.510;2023-05-07T11:43:37;14.90;;;9.13;;
11439;SDS011;5776;51.814;4.510;2023-05-07T11:46:08;13.85;;;10.35;;
11439;SDS011;5776;51.814;4.510;2023-05-07T11:48:36;17.45;;;11.48;;
11439;SDS011;5776;51.814;4.510;2023-05-07T11:51:05;12.95;;;9.32;;
11439;SDS011;5776;51.814;4.510;2023-05-07T11:53:38;11.68;;;8.25;;
11439;SDS011;5776;51.814;4.510;2023-05-07T11:56:07;17.45;;;12.27;;
11439;SDS011;5776;51.814;4.510;2023-05-07T11:58:37;14.45;;;10.70;;
11439;SDS011;5776;51.814;4.510;2023-05-07T12:01:03;19.83;;;11.13;;
11439;SDS011;5776;51.814;4.510;2023-05-07T12:03:29;17.98;;;11.13;;
11439;SDS011;5776;51.814;4.510;2023-05-07T12:05:55;13.30;;;8.75;;
11439;SDS011;5776;51.814;4.510;2023-05-07T12:08:21;13.15;;;7.78;;
11439;SDS011;5776;51.814;4.510;2023-05-07T12:10:50;12.02;;;8.02;;
11439;SDS011;5776;51.814;4.510;2023-05-07T12:16:00;11.30;;;6.80;;
11439;SDS011;5776;51.814;4.510;2023-05-07T12:18:28;10.73;;;8.65;;
11439;SDS011;5776;51.814;4.510;2023-05-07T12:20:55;20.15;;;12.93;;
11439;SDS011;5776;51.814;4.510;2023-05-07T12:23:21;15.45;;;12.20;;
11439;SDS011;5776;51.814;4.510;2023-05-07T12:25:48;17.58;;;13.70;;
11439;SDS011;5776;51.814;4.510;2023-05-07T12:28:14;10.95;;;8.55;;
11439;SDS011;5776;51.814;4.510;2023-05-07T12:30:46;17.15;;;13.05;;
11439;SDS011;5776;51.814;4.510;2023-05-07T12:33:17;14.82;;;11.48;;
11439;SDS011;5776;51.814;4.510;2023-05-07T12:35:44;21.27;;;13.88;;
11439;SDS011;5776;51.814;4.510;2023-05-07T12:38:11;20.27;;;15.35;;
11439;SDS011;5776;51.814;4.510;2023-05-07T12:40:40;24.27;;;15.90;;
11439;SDS011;5776;51.814;4.510;2023-05-07T12:43:15;20.25;;;12.98;;
11439;SDS011;5776;51.814;4.510;2023-05-07T12:45:44;19.13;;;15.30;;
11439;SDS011;5776;51.814;4.510;2023-05-07T12:48:12;24.70;;;14.85;;
11439;SDS011;5776;51.814;4.510;2023-05-07T12:50:38;18.45;;;12.52;;
11439;SDS011;5776;51.814;4.510;2023-05-07T12:53:04;19.67;;;12.20;;
11439;SDS011;5776;51.814;4.510;2023-05-07T12:55:40;19.85;;;10.60;;
11439;SDS011;5776;51.814;4.510;2023-05-07T12:58:26;14.52;;;10.73;;
11439;SDS011;5776;51.814;4.510;2023-05-07T13:00:54;10.73;;;8.75;;
11439;SDS011;5776;51.814;4.510;2023-05-07T13:03:25;23.25;;;11.65;;
11439;SDS011;5776;51.814;4.510;2023-05-07T13:05:57;19.65;;;12.35;;
11439;SDS011;5776;51.814;4.510;2023-05-07T13:08:25;21.48;;;13.20;;
11439;SDS011;5776;51.814;4.510;2023-05-07T13:11:02;19.73;;;12.85;;
11439;SDS011;5776;51.814;4.510;2023-05-07T13:13:30;20.88;;;12.27;;
11439;SDS011;5776;51.814;4.510;2023-05-07T13:15:56;17.45;;;12.45;;
11439;SDS011;5776;51.814;4.510;2023-05-07T13:18:23;17.42;;;12.43;;
11439;SDS011;5776;51.814;4.510;2023-05-07T13:20:50;16.40;;;11.25;;
11439;SDS011;5776;51.814;4.510;2023-05-07T13:23:17;21.65;;;11.88;;
11439;SDS011;5776;51.814;4.510;2023-05-07T13:25:42;21.08;;;13.50;;
11439;SDS011;5776;51.814;4.510;2023-05-07T13:28:08;17.77;;;11.70;;
11439;SDS011;5776;51.814;4.510;2023-05-07T13:30:34;20.80;;;12.35;;
11439;SDS011;5776;51.814;4.510;2023-05-07T13:33:00;21.98;;;12.32;;
11439;SDS011;5776;51.814;4.510;2023-05-07T13:35:27;23.95;;;12.82;;
11439;SDS011;5776;51.814;4.510;2023-05-07T13:37:53;22.67;;;13.60;;
11439;SDS011;5776;51.814;4.510;2023-05-07T13:40:20;21.77;;;13.35;;
11439;SDS011;5776;51.814;4.510;2023-05-07T13:42:47;19.30;;;13.05;;
11439;SDS011;5776;51.814;4.510;2023-05-07T13:45:13;21.33;;;13.63;;
11439;SDS011;5776;51.814;4.510;2023-05-07T13:47:40;17.75;;;13.07;;
11439;SDS011;5776;51.814;4.510;2023-05-07T13:50:07;20.83;;;13.80;;
11439;SDS011;5776;51.814;4.510;2023-05-07T13:52:34;22.35;;;12.95;;
11439;SDS011;5776;51.814;4.510;2023-05-07T13:55:00;21.38;;;13.15;;
11439;SDS011;5776;51.814;4.510;2023-05-07T13:57:26;20.27;;;12.02;;
11439;SDS011;5776;51.814;4.510;2023-05-07T13:59:52;16.83;;;12.60;;
11439;SDS011;5776;51.814;4.510;2023-05-07T14:02:18;20.92;;;13.50;;
11439;SDS011;5776;51.814;4.510;2023-05-07T14:04:44;27.90;;;14.13;;
11439;SDS011;5776;51.814;4.510;2023-05-07T14:07:10;20.75;;;13.75;;
11439;SDS011;5776;51.814;4.510;2023-05-07T14:09:36;17.85;;;11.05;;
11439;SDS011;5776;51.814;4.510;2023-05-07T14:12:02;20.42;;;12.15;;
11439;SDS011;5776;51.814;4.510;2023-05-07T14:14:28;18.75;;;11.70;;
11439;SDS011;5776;51.814;4.510;2023-05-07T14:16:55;17.45;;;12.68;;
11439;SDS011;5776;51.814;4.510;2023-05-07T14:19:21;18.67;;;12.98;;
11439;SDS011;5776;51.814;4.510;2023-05-07T14:21:47;13.93;;;9.13;;
11439;SDS011;5776;51.814;4.510;2023-05-07T14:24:13;12.02;;;7.28;;
11439;SDS011;5776;51.814;4.510;2023-05-07T14:26:40;17.25;;;8.55;;
11439;SDS011;5776;51.814;4.510;2023-05-07T14:29:06;19.67;;;10.50;;
11439;SDS011;5776;51.814;4.510;2023-05-07T14:31:32;17.08;;;10.75;;
11439;SDS011;5776;51.814;4.510;2023-05-07T14:33:58;16.58;;;9.00;;
11439;SDS011;5776;51.814;4.510;2023-05-07T14:36:25;18.98;;;9.15;;
11439;SDS011;5776;51.814;4.510;2023-05-07T14:38:51;13.27;;;8.27;;
11439;SDS011;5776;51.814;4.510;2023-05-07T14:41:19;13.50;;;6.55;;
11439;SDS011;5776;51.814;4.510;2023-05-07T14:43:47;14.57;;;7.88;;
11439;SDS011;5776;51.814;4.510;2023-05-07T14:46:16;13.80;;;8.50;;
11439;SDS011;5776;51.814;4.510;2023-05-07T14:48:43;17.40;;;8.10;;
11439;SDS011;5776;51.814;4.510;2023-05-07T14:51:10;15.23;;;7.28;;
11439;SDS011;5776;51.814;4.510;2023-05-07T14:53:36;15.00;;;9.75;;
11439;SDS011;5776;51.814;4.510;2023-05-07T14:56:02;11.50;;;7.75;;
11439;SDS011;5776;51.814;4.510;2023-05-07T14:58:28;11.00;;;7.03;;
11439;SDS011;5776;51.814;4.510;2023-05-07T15:00:55;14.23;;;7.95;;
11439;SDS011;5776;51.814;4.510;2023-05-07T15:03:21;15.15;;;9.30;;
11439;SDS011;5776;51.814;4.510;2023-05-07T15:05:47;18.27;;;9.70;;
11439;SDS011;5776;51.814;4.510;2023-05-07T15:08:13;14.18;;;8.77;;
11439;SDS011;5776;51.814;4.510;2023-05-07T15:10:39;13.75;;;8.38;;
11439;SDS011;5776;51.814;4.510;2023-05-07T15:13:08;14.13;;;7.13;;